Portada
METAR-TAF:

METAR-TAF

Aeroports :

San Antonio del Táchira, Veneçuela

latitud: 07-51N, longitud: 072-27W, altitud: 377 m

METAR: manca

Hora: 13:37 (17:37 UTC)

Pronòstic

L'informe es va fer fa 1 hora i 37 minuts, a les 16:00 UTC
Pronòstic vàlid del 24 a les 18 UTC al 25 a les 18 UTC
Vent 4 kt del Nord-Oest
Visibilitat 10 km o més
Núvols disperses a una alçada de 1600 ft
Evolucionant progressivament
l' 24 a les 18 UTC al 24 a les 22 UTC
Vent 5 kt del Sud/Sud-Oest
Visibilitat: 9000 m
Núvols disperses a una alçada de 1600 ft
Cel ennuvolat a una alçada de 4000 ft
plugim

TAF: SVSA 241600Z 2418/2518 32004KT 9999 SCT016 TX34/2418Z TN21/2408Z BECMG 2418/2422 21005KT 9000 -DZ SCT016 BKN040

Observacions i pronòstics meteorològics de més de 4000 aeroports (METAR i TAF).

Les estacions disponibles són els punts grocs i vermells al mapa.

Posi el ratolí al punt desitjat per veure el nom de l'estació.

Feu clic per veure les observacions i els pronòstics meteorològics.

Per canviar el mapa: feu clic els botons verds amb una creu de color negre per apropar; al botó verd amb un guió per allunyar la imatge; o en les fletxes verdes per a mapes adjacents.


METAR-TAF: